Time;durP1;ratioP1;P1;durP2;ratioP2;P2;SDS_P1;SDS_P2;PMS_P1;PMS_P2;Temp;Humidity;BMP_temperature;BMP_pressure;BME280_temperature;BME280_humidity;BME280_pressure;Samples;Min_cycle;Max_cycle;Signal;HPM_P1;HPM_P2
2024/01/16 00:00:06;;;;;;;0.30;0.30;;;;;;;;;;5066299;28;20392;-75
2024/01/16 00:02:33;;;;;;;0.30;0.30;;;;;;;;;;5054487;28;20236;-74
2024/01/16 00:05:00;;;;;;;0.30;0.30;;;;;;;;;;5065792;28;20291;-75
2024/01/16 00:07:27;;;;;;;0.30;0.30;;;;;;;;;;5054349;28;20487;-74
2024/01/16 00:09:53;;;;;;;0.30;0.30;;;;;;;;;;5065513;28;20499;-75
2024/01/16 00:12:20;;;;;;;0.30;0.30;;;;;;;;;;5053713;28;20244;-74
2024/01/16 00:14:46;;;;;;;0.30;0.30;;;;;;;;;;5065893;28;20214;-74
2024/01/16 00:17:13;;;;;;;0.27;0.27;;;;;;;;;;5054127;28;20262;-75
2024/01/16 00:19:39;;;;;;;0.30;0.30;;;;;;;;;;5065731;28;20293;-75
2024/01/16 00:22:07;;;;;;;0.30;0.30;;;;;;;;;;5054044;28;20298;-73
2024/01/16 00:24:33;;;;;;;0.20;0.20;;;;;;;;;;5065670;28;20212;-75
2024/01/16 00:26:59;;;;;;;0.30;0.30;;;;;;;;;;5054221;28;20242;-75
2024/01/16 00:29:26;;;;;;;0.30;0.30;;;;;;;;;;5065249;28;20242;-75
2024/01/16 00:31:52;;;;;;;0.30;0.30;;;;;;;;;;5053969;28;20274;-75
2024/01/16 00:34:19;;;;;;;0.30;0.30;;;;;;;;;;5064892;28;20214;-74
2024/01/16 00:36:46;;;;;;;0.27;0.27;;;;;;;;;;5054111;28;20243;-76
2024/01/16 00:39:14;;;;;;;0.20;0.20;;;;;;;;;;5065008;28;20229;-74
2024/01/16 00:41:40;;;;;;;0.20;0.20;;;;;;;;;;5054051;28;20249;-74
2024/01/16 00:44:07;;;;;;;0.20;0.20;;;;;;;;;;5065073;28;20207;-75
2024/01/16 00:46:34;;;;;;;0.27;0.27;;;;;;;;;;5054199;28;20505;-75
2024/01/16 00:49:00;;;;;;;0.20;0.20;;;;;;;;;;5064842;28;20536;-75
2024/01/16 00:51:26;;;;;;;0.23;0.23;;;;;;;;;;5054042;28;20243;-75
2024/01/16 00:53:53;;;;;;;0.20;0.20;;;;;;;;;;5064526;28;20235;-75
2024/01/16 00:56:20;;;;;;;0.20;0.20;;;;;;;;;;5053988;28;20512;-74
2024/01/16 00:58:47;;;;;;;0.20;0.20;;;;;;;;;;5064177;28;20211;-76
2024/01/16 01:01:13;;;;;;;0.20;0.20;;;;;;;;;;5053945;28;20321;-76
2024/01/16 01:03:39;;;;;;;0.20;0.20;;;;;;;;;;5064356;28;20245;-75
2024/01/16 01:06:06;;;;;;;0.20;0.20;;;;;;;;;;5053993;28;20246;-75
2024/01/16 01:08:32;;;;;;;0.20;0.20;;;;;;;;;;5064123;28;20207;-74
2024/01/16 01:10:59;;;;;;;0.20;0.20;;;;;;;;;;5053693;28;20258;-76
2024/01/16 01:13:26;;;;;;;0.20;0.20;;;;;;;;;;5063759;28;20276;-74
2024/01/16 01:15:53;;;;;;;0.20;0.20;;;;;;;;;;5053861;28;20251;-76
2024/01/16 01:18:21;;;;;;;0.30;0.30;;;;;;;;;;5063602;28;20207;-75
2024/01/16 01:20:47;;;;;;;0.20;0.20;;;;;;;;;;5053695;28;20277;-76
2024/01/16 01:23:13;;;;;;;0.30;0.30;;;;;;;;;;5062645;28;20218;-76
2024/01/16 01:25:40;;;;;;;0.20;0.20;;;;;;;;;;5053579;28;20468;-75
2024/01/16 01:28:06;;;;;;;0.20;0.20;;;;;;;;;;5063350;28;20234;-74
2024/01/16 01:30:34;;;;;;;0.30;0.30;;;;;;;;;;5053925;28;20250;-75
2024/01/16 01:33:00;;;;;;;0.20;0.20;;;;;;;;;;5063613;28;20196;-75
2024/01/16 01:35:27;;;;;;;0.20;0.20;;;;;;;;;;5053954;28;20210;-75
2024/01/16 01:37:53;;;;;;;0.20;0.20;;;;;;;;;;5063099;28;20226;-75
2024/01/16 01:40:20;;;;;;;0.20;0.20;;;;;;;;;;5053836;28;20207;-74
2024/01/16 01:42:46;;;;;;;0.20;0.20;;;;;;;;;;5063349;28;20395;-75
2024/01/16 01:45:13;;;;;;;0.20;0.20;;;;;;;;;;5053954;28;20228;-75
2024/01/16 01:47:42;;;;;;;0.20;0.20;;;;;;;;;;5063039;28;20203;-75
2024/01/16 01:50:09;;;;;;;0.20;0.20;;;;;;;;;;5061319;28;20237;-74
2024/01/16 01:52:36;;;;;;;0.20;0.20;;;;;;;;;;5062893;28;20212;-75
2024/01/16 01:55:03;;;;;;;0.20;0.20;;;;;;;;;;5064253;28;20203;-75
2024/01/16 01:57:29;;;;;;;0.20;0.20;;;;;;;;;;5052338;28;20244;-76
2024/01/16 01:59:56;;;;;;;0.20;0.20;;;;;;;;;;5064059;28;20387;-75
2024/01/16 02:02:23;;;;;;;0.30;0.30;;;;;;;;;;5052324;28;20463;-75
2024/01/16 02:04:51;;;;;;;0.20;0.20;;;;;;;;;;5063504;28;20226;-76
2024/01/16 02:07:17;;;;;;;0.20;0.20;;;;;;;;;;5052181;28;20301;-76
2024/01/16 02:09:44;;;;;;;0.20;0.20;;;;;;;;;;5063799;28;20387;-76
2024/01/16 02:12:11;;;;;;;0.20;0.20;;;;;;;;;;5052183;28;20239;-76
2024/01/16 02:14:37;;;;;;;0.20;0.20;;;;;;;;;;5063789;28;20206;-75
2024/01/16 02:17:03;;;;;;;0.20;0.20;;;;;;;;;;5052121;28;20301;-75
2024/01/16 02:19:30;;;;;;;0.20;0.20;;;;;;;;;;5063605;28;20207;-75
2024/01/16 02:21:59;;;;;;;0.20;0.20;;;;;;;;;;5052214;28;20249;-75
2024/01/16 02:24:27;;;;;;;0.30;0.30;;;;;;;;;;5063535;28;20240;-75
2024/01/16 02:26:54;;;;;;;0.23;0.23;;;;;;;;;;5052137;28;20285;-75
2024/01/16 02:29:21;;;;;;;0.20;0.20;;;;;;;;;;5063263;28;20237;-75
2024/01/16 02:31:47;;;;;;;0.20;0.20;;;;;;;;;;5052152;28;20321;-75
2024/01/16 02:34:14;;;;;;;0.20;0.20;;;;;;;;;;5064869;28;20278;-75
2024/01/16 02:36:40;;;;;;;0.20;0.20;;;;;;;;;;5056356;28;20246;-75
2024/01/16 02:39:07;;;;;;;0.20;0.20;;;;;;;;;;5067408;28;20235;-75
2024/01/16 02:41:35;;;;;;;0.20;0.20;;;;;;;;;;5056227;28;20246;-75
2024/01/16 02:44:02;;;;;;;0.20;0.20;;;;;;;;;;5067254;28;20210;-75
2024/01/16 02:46:28;;;;;;;0.20;0.20;;;;;;;;;;5056426;28;20266;-75
2024/01/16 02:48:54;;;;;;;0.20;0.20;;;;;;;;;;5066745;28;20277;-76
2024/01/16 02:51:21;;;;;;;0.20;0.20;;;;;;;;;;5056257;28;20258;-75
2024/01/16 02:53:47;;;;;;;0.20;0.20;;;;;;;;;;5066893;28;20531;-76
2024/01/16 02:56:13;;;;;;;0.27;0.27;;;;;;;;;;5056089;28;20251;-75
2024/01/16 02:58:41;;;;;;;0.20;0.20;;;;;;;;;;5066415;28;20238;-76
2024/01/16 03:01:08;;;;;;;0.20;0.20;;;;;;;;;;5056174;28;20243;-75
2024/01/16 03:03:35;;;;;;;0.20;0.20;;;;;;;;;;5066255;28;20204;-75
2024/01/16 03:06:01;;;;;;;0.20;0.20;;;;;;;;;;5056139;28;20240;-75
2024/01/16 03:08:27;;;;;;;0.20;0.20;;;;;;;;;;5066072;28;20214;-75
2024/01/16 03:10:54;;;;;;;0.20;0.20;;;;;;;;;;5056271;28;20319;-75
2024/01/16 03:13:20;;;;;;;0.20;0.20;;;;;;;;;;5066148;28;20209;-74
2024/01/16 03:15:48;;;;;;;0.20;0.20;;;;;;;;;;5056324;28;20238;-75
2024/01/16 03:18:14;;;;;;;0.20;0.20;;;;;;;;;;5066111;28;20279;-75
2024/01/16 03:20:40;;;;;;;0.20;0.20;;;;;;;;;;5056430;28;20313;-75
2024/01/16 03:23:07;;;;;;;0.20;0.20;;;;;;;;;;5065800;28;20203;-75
2024/01/16 03:25:38;;;;;;;0.20;0.20;;;;;;;;;;5056461;28;20311;-74
2024/01/16 03:28:07;;;;;;;0.20;0.20;;;;;;;;;;5065609;28;20270;-74
2024/01/16 03:30:34;;;;;;;0.20;0.20;;;;;;;;;;5056035;28;20250;-75
2024/01/16 03:33:01;;;;;;;0.30;0.30;;;;;;;;;;5065600;28;20262;-75
2024/01/16 03:35:28;;;;;;;0.20;0.20;;;;;;;;;;5056403;28;20252;-75
2024/01/16 03:37:54;;;;;;;0.30;0.30;;;;;;;;;;5065714;28;20203;-75
2024/01/16 03:40:20;;;;;;;0.20;0.20;;;;;;;;;;5056165;28;20506;-75
2024/01/16 03:42:47;;;;;;;0.20;0.20;;;;;;;;;;5065585;28;20220;-75
2024/01/16 03:45:13;;;;;;;0.20;0.20;;;;;;;;;;5054926;28;20394;-76
2024/01/16 03:47:40;;;;;;;0.30;0.30;;;;;;;;;;5065184;28;20195;-74
2024/01/16 03:50:08;;;;;;;0.27;0.27;;;;;;;;;;5066385;28;20243;-75
2024/01/16 03:52:34;;;;;;;0.30;0.30;;;;;;;;;;5054792;28;20254;-76
2024/01/16 03:55:01;;;;;;;0.20;0.20;;;;;;;;;;5065886;28;20237;-75
2024/01/16 03:57:27;;;;;;;0.20;0.20;;;;;;;;;;5054617;28;20242;-75
2024/01/16 03:59:54;;;;;;;0.20;0.20;;;;;;;;;;5066043;28;20398;-75
2024/01/16 04:02:20;;;;;;;0.20;0.20;;;;;;;;;;5054571;28;20239;-75
2024/01/16 04:04:46;;;;;;;0.30;0.30;;;;;;;;;;5065879;28;20418;-74
2024/01/16 04:07:14;;;;;;;0.20;0.20;;;;;;;;;;5054413;28;20258;-75
2024/01/16 04:09:41;;;;;;;0.23;0.23;;;;;;;;;;5065983;28;20461;-75
2024/01/16 04:12:08;;;;;;;0.20;0.20;;;;;;;;;;5054289;28;20345;-75
2024/01/16 04:14:34;;;;;;;0.20;0.20;;;;;;;;;;5065754;28;20242;-75
2024/01/16 04:17:00;;;;;;;0.20;0.20;;;;;;;;;;5054534;28;20270;-75
2024/01/16 04:19:27;;;;;;;0.20;0.20;;;;;;;;;;5065305;28;20273;-74
2024/01/16 04:21:53;;;;;;;0.20;0.20;;;;;;;;;;5054573;28;20249;-74
2024/01/16 04:24:21;;;;;;;0.30;0.30;;;;;;;;;;5065430;28;20203;-74
2024/01/16 04:26:47;;;;;;;0.20;0.20;;;;;;;;;;5054377;28;20264;-76
2024/01/16 04:29:14;;;;;;;0.20;0.20;;;;;;;;;;5065211;28;20250;-76
2024/01/16 04:31:41;;;;;;;0.27;0.27;;;;;;;;;;5054428;28;20574;-76
2024/01/16 04:34:07;;;;;;;0.20;0.20;;;;;;;;;;5065144;28;20253;-76
2024/01/16 04:36:34;;;;;;;0.30;0.30;;;;;;;;;;5054273;28;20253;-75
2024/01/16 04:39:00;;;;;;;0.20;0.20;;;;;;;;;;5065009;28;20207;-75
2024/01/16 04:41:28;;;;;;;0.20;0.20;;;;;;;;;;5054382;28;20238;-75
2024/01/16 04:43:54;;;;;;;0.20;0.20;;;;;;;;;;5064737;28;20250;-75
2024/01/16 04:46:21;;;;;;;0.20;0.20;;;;;;;;;;5054333;28;20258;-75
2024/01/16 04:48:47;;;;;;;0.20;0.20;;;;;;;;;;5064528;28;20248;-75
2024/01/16 04:51:14;;;;;;;0.20;0.20;;;;;;;;;;5054042;28;20242;-75
2024/01/16 04:53:41;;;;;;;0.20;0.20;;;;;;;;;;5064188;28;20272;-75
2024/01/16 04:56:07;;;;;;;0.23;0.23;;;;;;;;;;5054307;28;20243;-75
2024/01/16 04:58:35;;;;;;;0.30;0.30;;;;;;;;;;5064104;28;20267;-75
2024/01/16 05:01:01;;;;;;;0.20;0.20;;;;;;;;;;5053972;28;20238;-75
2024/01/16 05:03:27;;;;;;;0.30;0.30;;;;;;;;;;5064151;28;20234;-74
2024/01/16 05:05:55;;;;;;;0.30;0.30;;;;;;;;;;5053580;28;20300;-75
2024/01/16 05:08:22;;;;;;;0.23;0.23;;;;;;;;;;5063744;28;20213;-74
2024/01/16 05:10:51;;;;;;;0.20;0.20;;;;;;;;;;5053948;28;20307;-75
2024/01/16 05:13:17;;;;;;;0.20;0.20;;;;;;;;;;5063773;28;20207;-75
2024/01/16 05:15:45;;;;;;;0.20;0.20;;;;;;;;;;5054373;28;20306;-76
2024/01/16 05:18:11;;;;;;;0.20;0.20;;;;;;;;;;5063608;28;20430;-75
2024/01/16 05:20:37;;;;;;;0.30;0.30;;;;;;;;;;5054123;28;20278;-76
2024/01/16 05:23:04;;;;;;;0.20;0.20;;;;;;;;;;5063829;28;20401;-75
2024/01/16 05:25:31;;;;;;;0.20;0.20;;;;;;;;;;5054135;28;20428;-75
2024/01/16 05:27:57;;;;;;;0.20;0.20;;;;;;;;;;5063717;28;20206;-75
2024/01/16 05:30:23;;;;;;;0.20;0.20;;;;;;;;;;5053989;28;20244;-74
2024/01/16 05:32:52;;;;;;;0.27;0.27;;;;;;;;;;5063278;28;20283;-76
2024/01/16 05:35:18;;;;;;;0.20;0.20;;;;;;;;;;5053957;28;20203;-75
2024/01/16 05:37:44;;;;;;;0.20;0.20;;;;;;;;;;5063163;28;20195;-74
2024/01/16 05:40:11;;;;;;;0.23;0.23;;;;;;;;;;5054024;28;20379;-74
2024/01/16 05:42:38;;;;;;;0.30;0.30;;;;;;;;;;5062954;28;20505;-75
2024/01/16 05:45:05;;;;;;;0.30;0.30;;;;;;;;;;5064159;28;20275;-75
2024/01/16 05:47:31;;;;;;;0.20;0.20;;;;;;;;;;5052517;28;20270;-75
2024/01/16 05:49:59;;;;;;;0.30;0.30;;;;;;;;;;5064146;28;20401;-75
2024/01/16 05:52:25;;;;;;;0.27;0.27;;;;;;;;;;5052558;28;20270;-75
2024/01/16 05:54:52;;;;;;;0.30;0.30;;;;;;;;;;5064149;28;20206;-75
2024/01/16 05:57:18;;;;;;;0.30;0.30;;;;;;;;;;5052388;28;20242;-76
2024/01/16 05:59:44;;;;;;;0.20;0.20;;;;;;;;;;5063900;28;20207;-75
2024/01/16 06:02:11;;;;;;;0.30;0.30;;;;;;;;;;5052240;28;20245;-75
2024/01/16 06:04:38;;;;;;;0.20;0.20;;;;;;;;;;5063242;28;20218;-76
2024/01/16 06:07:07;;;;;;;0.20;0.20;;;;;;;;;;5052286;28;20451;-76
2024/01/16 06:09:33;;;;;;;0.20;0.20;;;;;;;;;;5063115;28;20252;-75
2024/01/16 06:12:00;;;;;;;0.30;0.30;;;;;;;;;;5052419;28;20312;-75
2024/01/16 06:14:26;;;;;;;0.20;0.20;;;;;;;;;;5063480;28;20213;-75
2024/01/16 06:16:52;;;;;;;0.30;0.30;;;;;;;;;;5052332;28;20257;-75
2024/01/16 06:19:19;;;;;;;0.20;0.20;;;;;;;;;;5063387;28;20243;-75
2024/01/16 06:21:45;;;;;;;0.30;0.30;;;;;;;;;;5052470;28;20504;-75
2024/01/16 06:24:13;;;;;;;0.20;0.20;;;;;;;;;;5063349;28;20230;-74
2024/01/16 06:26:39;;;;;;;0.20;0.20;;;;;;;;;;5052483;28;20243;-75
2024/01/16 06:29:06;;;;;;;0.30;0.30;;;;;;;;;;5063148;28;20207;-75
2024/01/16 06:31:32;;;;;;;0.23;0.23;;;;;;;;;;5052322;28;20424;-75
2024/01/16 06:33:59;;;;;;;0.30;0.30;;;;;;;;;;5063055;28;20204;-75
2024/01/16 06:36:25;;;;;;;0.30;0.30;;;;;;;;;;5052354;28;20313;-75
2024/01/16 06:38:51;;;;;;;0.27;0.27;;;;;;;;;;5062854;28;20282;-75
2024/01/16 06:41:19;;;;;;;0.20;0.20;;;;;;;;;;5052161;28;20296;-76
2024/01/16 06:43:45;;;;;;;0.30;0.30;;;;;;;;;;5063078;28;20446;-75
2024/01/16 06:46:12;;;;;;;0.20;0.20;;;;;;;;;;5052545;28;20549;-76
2024/01/16 06:48:38;;;;;;;0.20;0.20;;;;;;;;;;5062826;28;20269;-76
2024/01/16 06:51:05;;;;;;;0.20;0.20;;;;;;;;;;5052485;28;20248;-75
2024/01/16 06:53:31;;;;;;;0.30;0.30;;;;;;;;;;5062488;28;20236;-76
2024/01/16 06:55:57;;;;;;;0.30;0.30;;;;;;;;;;5052502;28;20466;-75
2024/01/16 06:58:25;;;;;;;0.30;0.30;;;;;;;;;;5062590;28;20201;-74
2024/01/16 07:00:52;;;;;;;0.20;0.20;;;;;;;;;;5052446;28;20252;-74
2024/01/16 07:03:18;;;;;;;0.30;0.30;;;;;;;;;;5062220;28;20203;-75
2024/01/16 07:05:45;;;;;;;0.23;0.23;;;;;;;;;;5052217;28;20239;-75
2024/01/16 07:08:11;;;;;;;0.30;0.30;;;;;;;;;;5062216;28;20243;-75
2024/01/16 07:10:37;;;;;;;0.20;0.20;;;;;;;;;;5052619;28;20240;-75
2024/01/16 07:13:04;;;;;;;0.30;0.30;;;;;;;;;;5062051;28;20243;-75
2024/01/16 07:15:31;;;;;;;0.30;0.30;;;;;;;;;;5052335;28;20273;-75
2024/01/16 07:17:58;;;;;;;0.30;0.30;;;;;;;;;;5062050;28;20241;-75
2024/01/16 07:20:24;;;;;;;0.30;0.30;;;;;;;;;;5054370;28;20206;-75
2024/01/16 07:22:51;;;;;;;0.20;0.20;;;;;;;;;;5065806;28;20198;-74
2024/01/16 07:25:18;;;;;;;0.30;0.30;;;;;;;;;;5055989;28;20499;-75
2024/01/16 07:27:46;;;;;;;0.30;0.30;;;;;;;;;;5065919;28;20227;-75
2024/01/16 07:30:13;;;;;;;0.30;0.30;;;;;;;;;;5056499;28;20214;-76
2024/01/16 07:32:41;;;;;;;0.30;0.30;;;;;;;;;;5065623;28;20445;-75
2024/01/16 07:35:07;;;;;;;0.30;0.30;;;;;;;;;;5066572;28;20215;-76
2024/01/16 07:37:34;;;;;;;0.20;0.20;;;;;;;;;;5055093;28;20450;-75
2024/01/16 07:40:00;;;;;;;0.30;0.30;;;;;;;;;;5066531;28;20254;-76
2024/01/16 07:42:33;;;;;;;0.27;0.27;;;;;;;;;;5055017;28;20280;-74
2024/01/16 07:45:00;;;;;;;0.30;0.30;;;;;;;;;;5066574;28;20204;-76
2024/01/16 07:47:26;;;;;;;0.30;0.30;;;;;;;;;;5054898;28;20503;-75
2024/01/16 07:49:54;;;;;;;0.20;0.20;;;;;;;;;;5066251;28;20205;-74
2024/01/16 07:52:20;;;;;;;0.30;0.30;;;;;;;;;;5054690;28;20575;-74
2024/01/16 07:54:46;;;;;;;0.30;0.30;;;;;;;;;;5066257;28;20206;-74
2024/01/16 07:57:13;;;;;;;0.30;0.30;;;;;;;;;;5054721;28;20654;-74
2024/01/16 07:59:40;;;;;;;0.30;0.30;;;;;;;;;;5066170;28;20207;-74
2024/01/16 08:02:08;;;;;;;0.30;0.30;;;;;;;;;;5054596;28;20476;-75
2024/01/16 08:04:35;;;;;;;0.30;0.30;;;;;;;;;;5065653;28;20215;-75
2024/01/16 08:07:02;;;;;;;0.30;0.30;;;;;;;;;;5054558;28;20239;-74
2024/01/16 08:09:29;;;;;;;0.30;0.30;;;;;;;;;;5065813;28;20228;-75
2024/01/16 08:11:55;;;;;;;0.30;0.30;;;;;;;;;;5054538;28;20279;-75
2024/01/16 08:14:22;;;;;;;0.30;0.30;;;;;;;;;;5065838;28;20239;-75
2024/01/16 08:16:48;;;;;;;0.23;0.23;;;;;;;;;;5054538;28;20304;-75
2024/01/16 08:19:15;;;;;;;0.30;0.30;;;;;;;;;;5065732;28;20234;-79
2024/01/16 08:21:41;;;;;;;0.20;0.20;;;;;;;;;;5054992;28;20301;-79
2024/01/16 08:24:10;;;;;;;0.30;0.30;;;;;;;;;;5066109;28;20248;-80
2024/01/16 08:26:37;;;;;;;0.30;0.30;;;;;;;;;;5054453;28;20266;-75
2024/01/16 08:29:05;;;;;;;0.30;0.30;;;;;;;;;;5065528;28;20208;-75
2024/01/16 08:31:31;;;;;;;0.20;0.20;;;;;;;;;;5054557;28;20281;-78
2024/01/16 08:33:57;;;;;;;0.20;0.20;;;;;;;;;;5047334;28;20292;-77
2024/01/16 08:36:24;;;;;;;0.30;0.30;;;;;;;;;;5034456;28;20484;-79
2024/01/16 08:38:51;;;;;;;0.23;0.23;;;;;;;;;;5044816;28;20210;-80
2024/01/16 08:41:18;;;;;;;0.30;0.30;;;;;;;;;;5034579;28;20281;-81
2024/01/16 08:43:45;;;;;;;0.20;0.20;;;;;;;;;;5045005;28;20207;-77
2024/01/16 08:46:11;;;;;;;0.20;0.20;;;;;;;;;;5034508;28;20247;-77
2024/01/16 08:48:38;;;;;;;0.30;0.30;;;;;;;;;;5044516;28;20526;-77
2024/01/16 08:51:08;;;;;;;0.20;0.20;;;;;;;;;;5034496;28;20243;-76
2024/01/16 08:53:35;;;;;;;0.20;0.20;;;;;;;;;;5044281;28;20227;-76
2024/01/16 08:56:02;;;;;;;0.20;0.20;;;;;;;;;;5034342;28;20451;-77
2024/01/16 08:58:30;;;;;;;0.30;0.30;;;;;;;;;;5044117;28;20215;-77
2024/01/16 09:00:56;;;;;;;0.20;0.20;;;;;;;;;;5034084;28;20295;-76
2024/01/16 09:03:23;;;;;;;0.20;0.20;;;;;;;;;;5044258;28;20275;-75
2024/01/16 09:05:49;;;;;;;0.20;0.20;;;;;;;;;;5034112;28;20576;-77
2024/01/16 09:08:15;;;;;;;0.20;0.20;;;;;;;;;;5043909;28;20207;-77
2024/01/16 09:11:00;;;;;;;0.20;0.20;;;;;;;;;;5034318;28;20263;-77
2024/01/16 09:13:26;;;;;;;0.23;0.23;;;;;;;;;;5044071;28;20231;-77
2024/01/16 09:15:54;;;;;;;0.20;0.20;;;;;;;;;;5033817;28;20334;-77
2024/01/16 09:18:20;;;;;;;0.20;0.20;;;;;;;;;;5043553;28;20432;-76
2024/01/16 09:20:48;;;;;;;0.20;0.20;;;;;;;;;;5033931;28;20327;-77
2024/01/16 09:23:14;;;;;;;0.20;0.20;;;;;;;;;;5043612;28;20188;-76
2024/01/16 09:25:41;;;;;;;0.20;0.20;;;;;;;;;;5034041;28;20396;-77
2024/01/16 09:28:07;;;;;;;0.20;0.20;;;;;;;;;;5043862;28;20208;-78
2024/01/16 09:30:35;;;;;;;0.20;0.20;;;;;;;;;;5036662;28;20479;-77
2024/01/16 09:33:04;;;;;;;0.20;0.20;;;;;;;;;;5056446;28;20234;-77
2024/01/16 09:35:30;;;;;;;0.20;0.20;;;;;;;;;;5037070;28;20251;-76
2024/01/16 09:37:57;;;;;;;0.73;0.73;;;;;;;;;;5057251;28;20380;-76
2024/01/16 09:40:23;;;;;;;0.20;0.20;;;;;;;;;;5036015;28;20262;-76
2024/01/16 09:42:50;;;;;;;0.20;0.20;;;;;;;;;;5057410;28;20196;-77
2024/01/16 09:45:20;;;;;;;0.20;0.20;;;;;;;;;;5034062;28;20381;-77
2024/01/16 09:47:47;;;;;;;0.20;0.20;;;;;;;;;;5058299;28;20208;-76
2024/01/16 09:50:17;;;;;;;0.23;0.23;;;;;;;;;;5034142;28;20236;-77
2024/01/16 09:52:43;;;;;;;0.20;0.20;;;;;;;;;;5058204;28;20263;-78
2024/01/16 09:55:10;;;;;;;0.20;0.20;;;;;;;;;;5043654;28;20232;-77
2024/01/16 09:57:40;;;;;;;0.20;0.20;;;;;;;;;;5032510;28;20218;-76
2024/01/16 10:00:07;;;;;;;0.30;0.30;;;;;;;;;;5044189;28;20215;-77
2024/01/16 10:02:33;;;;;;;0.20;0.20;;;;;;;;;;5049154;28;20283;-77
2024/01/16 10:05:00;;;;;;;0.20;0.20;;;;;;;;;;5043699;28;20224;-77
2024/01/16 10:07:31;;;;;;;0.20;0.20;;;;;;;;;;5049452;28;20244;-75
2024/01/16 10:09:58;;;;;;;0.20;0.20;;;;;;;;;;5044115;28;20275;-76
2024/01/16 10:12:24;;;;;;;0.20;0.20;;;;;;;;;;5048968;28;20285;-77
2024/01/16 10:14:51;;;;;;;0.20;0.20;;;;;;;;;;5043925;28;20215;-76
2024/01/16 10:17:18;;;;;;;0.20;0.20;;;;;;;;;;5048911;28;20500;-76
2024/01/16 10:19:48;;;;;;;0.20;0.20;;;;;;;;;;5043786;28;20229;-76
2024/01/16 10:22:19;;;;;;;0.20;0.20;;;;;;;;;;5048914;28;20315;-76
2024/01/16 10:24:47;;;;;;;0.20;0.20;;;;;;;;;;5043785;28;20277;-76
2024/01/16 10:27:16;;;;;;;0.20;0.20;;;;;;;;;;5048713;28;20294;-77
2024/01/16 10:29:55;;;;;;;0.20;0.20;;;;;;;;;;5043776;28;20430;-77
2024/01/16 10:32:27;;;;;;;0.20;0.20;;;;;;;;;;5052064;28;20446;-77
2024/01/16 10:35:02;;;;;;;0.20;0.20;;;;;;;;;;5063806;28;20204;-77
2024/01/16 10:37:28;;;;;;;0.10;0.10;;;;;;;;;;5037014;28;20248;-77
2024/01/16 10:39:56;;;;;;;0.20;0.20;;;;;;;;;;5044881;28;20201;-76
2024/01/16 10:42:22;;;;;;;0.20;0.20;;;;;;;;;;5032433;28;20248;-76
2024/01/16 10:44:53;;;;;;;0.83;0.83;;;;;;;;;;5043994;28;20211;-73
2024/01/16 10:47:22;;;;;;;0.20;0.20;;;;;;;;;;5032215;28;20243;-77
2024/01/16 10:49:48;;;;;;;0.20;0.20;;;;;;;;;;5045246;28;20235;-79
2024/01/16 10:52:15;;;;;;;0.20;0.20;;;;;;;;;;5033370;28;20591;-80
2024/01/16 10:54:44;;;;;;;0.20;0.20;;;;;;;;;;5044238;28;20252;-80
2024/01/16 10:57:12;;;;;;;0.20;0.20;;;;;;;;;;5035984;28;20251;-80
2024/01/16 10:59:41;;;;;;;0.20;0.20;;;;;;;;;;5047999;28;20380;-80
2024/01/16 11:02:10;;;;;;;0.20;0.20;;;;;;;;;;5036081;28;20282;-80
2024/01/16 11:04:37;;;;;;;0.20;0.20;;;;;;;;;;5047119;28;20241;-80
2024/01/16 11:07:04;;;;;;;0.20;0.20;;;;;;;;;;5036088;28;20251;-78
2024/01/16 11:09:32;;;;;;;0.20;0.20;;;;;;;;;;5047352;28;20211;-79
2024/01/16 11:11:59;;;;;;;0.20;0.20;;;;;;;;;;5035920;28;20248;-77
2024/01/16 11:14:27;;;;;;;0.20;0.20;;;;;;;;;;5046855;28;20232;-77
2024/01/16 11:16:54;;;;;;;0.30;0.30;;;;;;;;;;5035587;28;20486;-78
2024/01/16 11:19:21;;;;;;;0.20;0.20;;;;;;;;;;5046939;28;20400;-77
2024/01/16 11:21:48;;;;;;;0.20;0.20;;;;;;;;;;5035554;28;20322;-77
2024/01/16 11:24:14;;;;;;;0.20;0.20;;;;;;;;;;5046666;28;20201;-77
2024/01/16 11:26:41;;;;;;;0.20;0.20;;;;;;;;;;5035552;28;20275;-77
2024/01/16 11:29:22;;;;;;;0.20;0.20;;;;;;;;;;5046369;28;20231;-77
2024/01/16 11:31:50;;;;;;;0.20;0.20;;;;;;;;;;5022643;28;20256;-77
2024/01/16 11:34:36;;;;;;;0.20;0.20;;;;;;;;;;5046316;28;20291;-77
2024/01/16 11:37:06;;;;;;;0.20;0.20;;;;;;;;;;5035255;28;20491;-78
2024/01/16 11:39:33;;;;;;;0.20;0.20;;;;;;;;;;5046259;28;20209;-76
2024/01/16 11:42:02;;;;;;;0.20;0.20;;;;;;;;;;5034803;28;20302;-77
2024/01/16 11:44:38;;;;;;;0.20;0.20;;;;;;;;;;5046480;28;20201;-76
2024/01/16 11:47:06;;;;;;;0.20;0.20;;;;;;;;;;5034857;28;20243;-76
2024/01/16 11:49:33;;;;;;;0.20;0.20;;;;;;;;;;5046107;28;20208;-76
2024/01/16 11:51:59;;;;;;;0.20;0.20;;;;;;;;;;5035023;28;20244;-77
2024/01/16 11:54:26;;;;;;;0.20;0.20;;;;;;;;;;5063197;28;20262;-76
2024/01/16 11:57:14;;;;;;;0.20;0.20;;;;;;;;;;5054839;28;20333;-77
2024/01/16 12:00:00;;;;;;;0.20;0.20;;;;;;;;;;5062445;28;20211;-77
2024/01/16 12:02:30;;;;;;;0.20;0.20;;;;;;;;;;5054537;28;20347;-77
2024/01/16 12:05:02;;;;;;;0.20;0.20;;;;;;;;;;5066122;28;20239;-76
2024/01/16 12:07:29;;;;;;;0.20;0.20;;;;;;;;;;5053357;28;20240;-76
2024/01/16 12:09:59;;;;;;;0.43;0.43;;;;;;;;;;5066429;28;20203;-78
2024/01/16 12:12:26;;;;;;;0.20;0.20;;;;;;;;;;5054483;28;20243;-79
2024/01/16 12:14:54;;;;;;;0.20;0.20;;;;;;;;;;5065992;28;20266;-79
2024/01/16 12:17:20;;;;;;;0.20;0.20;;;;;;;;;;5054596;28;20239;-80
2024/01/16 12:19:49;;;;;;;0.20;0.20;;;;;;;;;;5066203;28;20207;-80
2024/01/16 12:22:16;;;;;;;0.20;0.20;;;;;;;;;;5054299;28;20270;-80
2024/01/16 12:24:43;;;;;;;0.20;0.20;;;;;;;;;;5065889;28;20512;-79
2024/01/16 12:27:09;;;;;;;0.20;0.20;;;;;;;;;;5054288;28;20243;-80
2024/01/16 12:29:36;;;;;;;0.20;0.20;;;;;;;;;;5065928;28;20199;-79
2024/01/16 12:32:06;;;;;;;0.20;0.20;;;;;;;;;;5054251;28;20245;-80
2024/01/16 12:34:32;;;;;;;0.20;0.20;;;;;;;;;;5065995;28;20226;-80
2024/01/16 12:37:07;;;;;;;0.20;0.20;;;;;;;;;;5054357;28;20242;-80
2024/01/16 12:39:35;;;;;;;0.20;0.20;;;;;;;;;;5065729;28;20203;-79
2024/01/16 12:42:02;;;;;;;0.30;0.30;;;;;;;;;;5054228;28;20242;-80
2024/01/16 12:44:28;;;;;;;0.20;0.20;;;;;;;;;;5065264;28;20196;-79
2024/01/16 12:46:55;;;;;;;0.30;0.30;;;;;;;;;;5054133;28;20243;-79
2024/01/16 12:49:22;;;;;;;0.20;0.20;;;;;;;;;;5065095;28;20204;-79
2024/01/16 12:51:49;;;;;;;0.20;0.20;;;;;;;;;;5054125;28;20243;-79
2024/01/16 12:54:18;;;;;;;0.20;0.20;;;;;;;;;;5065058;28;20228;-79
2024/01/16 12:56:45;;;;;;;0.20;0.20;;;;;;;;;;5053953;28;20302;-80
2024/01/16 12:59:12;;;;;;;0.20;0.20;;;;;;;;;;5065256;28;20226;-80
2024/01/16 13:01:41;;;;;;;0.20;0.20;;;;;;;;;;5054056;28;20874;-80
2024/01/16 13:04:08;;;;;;;0.20;0.20;;;;;;;;;;5064654;28;20200;-79
2024/01/16 13:06:34;;;;;;;0.20;0.20;;;;;;;;;;5054002;28;20252;-78
2024/01/16 13:09:09;;;;;;;0.20;0.20;;;;;;;;;;5064674;28;20205;-79
2024/01/16 13:11:46;;;;;;;0.20;0.20;;;;;;;;;;5053477;28;20239;-79
2024/01/16 13:14:13;;;;;;;0.20;0.20;;;;;;;;;;5064243;28;20232;-79
2024/01/16 13:16:39;;;;;;;0.20;0.20;;;;;;;;;;5053469;28;20252;-79
2024/01/16 13:19:09;;;;;;;0.20;0.20;;;;;;;;;;5064070;28;20203;-79
2024/01/16 13:21:36;;;;;;;0.20;0.20;;;;;;;;;;5053396;28;20309;-79
2024/01/16 13:24:02;;;;;;;0.20;0.20;;;;;;;;;;5064208;28;20200;-79
2024/01/16 13:26:29;;;;;;;0.20;0.20;;;;;;;;;;5053155;28;20266;-78
2024/01/16 13:28:57;;;;;;;0.20;0.20;;;;;;;;;;5063864;28;20222;-78
2024/01/16 13:31:23;;;;;;;0.20;0.20;;;;;;;;;;5053301;28;20305;-78
2024/01/16 13:33:49;;;;;;;0.10;0.10;;;;;;;;;;5063794;28;20224;-79
2024/01/16 13:36:16;;;;;;;0.80;0.80;;;;;;;;;;5053266;28;20246;-79
2024/01/16 13:38:42;;;;;;;0.40;0.40;;;;;;;;;;5063671;28;20598;-79
2024/01/16 13:41:09;;;;;;;0.20;0.20;;;;;;;;;;5053182;28;20246;-79
2024/01/16 13:43:35;;;;;;;0.20;0.20;;;;;;;;;;5063441;28;20202;-79
2024/01/16 13:46:05;;;;;;;0.20;0.20;;;;;;;;;;5053382;28;20290;-79
2024/01/16 13:48:31;;;;;;;0.20;0.20;;;;;;;;;;5063329;28;20367;-80
2024/01/16 13:50:58;;;;;;;0.20;0.20;;;;;;;;;;5053310;28;20244;-79
2024/01/16 13:53:24;;;;;;;0.20;0.20;;;;;;;;;;5063402;28;20443;-80
2024/01/16 13:55:50;;;;;;;0.20;0.20;;;;;;;;;;5053555;28;20486;-80
2024/01/16 13:58:18;;;;;;;0.20;0.20;;;;;;;;;;5063241;28;20274;-79
2024/01/16 14:00:44;;;;;;;0.20;0.20;;;;;;;;;;5053449;28;20243;-79
2024/01/16 14:03:12;;;;;;;0.27;0.27;;;;;;;;;;5062993;28;20271;-80
2024/01/16 14:05:42;;;;;;;0.20;0.20;;;;;;;;;;5053206;28;20315;-78
2024/01/16 14:08:11;;;;;;;0.20;0.20;;;;;;;;;;5062834;28;20271;-79
2024/01/16 14:10:38;;;;;;;0.20;0.20;;;;;;;;;;5053592;28;20295;-79
2024/01/16 14:13:06;;;;;;;0.20;0.20;;;;;;;;;;5062741;28;20222;-79
2024/01/16 14:15:34;;;;;;;0.20;0.20;;;;;;;;;;5053347;28;20243;-78
2024/01/16 14:18:00;;;;;;;0.20;0.20;;;;;;;;;;5062697;28;20190;-79
2024/01/16 14:20:28;;;;;;;0.30;0.30;;;;;;;;;;5053516;28;20275;-79
2024/01/16 14:22:55;;;;;;;0.20;0.20;;;;;;;;;;5062502;28;20400;-79
2024/01/16 14:25:22;;;;;;;0.20;0.20;;;;;;;;;;5053501;28;20224;-79
2024/01/16 14:27:56;;;;;;;0.20;0.20;;;;;;;;;;5062524;28;20358;-79
2024/01/16 14:30:22;;;;;;;0.20;0.20;;;;;;;;;;5052904;28;20234;-78
2024/01/16 14:32:49;;;;;;;0.30;0.30;;;;;;;;;;5062313;28;20499;-79
2024/01/16 14:35:17;;;;;;;0.20;0.20;;;;;;;;;;5053481;28;20534;-78
2024/01/16 14:37:45;;;;;;;0.20;0.20;;;;;;;;;;5062222;28;20431;-79
2024/01/16 14:40:15;;;;;;;0.20;0.20;;;;;;;;;;5052902;28;20203;-78
2024/01/16 14:42:42;;;;;;;0.20;0.20;;;;;;;;;;5062327;28;20388;-78